createdAt,value
2024-02-22T00:00:19.037Z,68.25
2024-02-22T00:03:08.183Z,68.39
2024-02-22T00:05:39.044Z,69.30
2024-02-22T00:08:08.502Z,69.45
2024-02-22T00:10:37.286Z,70.05
2024-02-22T00:13:07.221Z,71.20
2024-02-22T00:15:35.900Z,71.45
2024-02-22T00:18:05.101Z,71.53
2024-02-22T00:20:34.933Z,71.32
2024-02-22T00:23:06.459Z,70.02
2024-02-22T00:25:35.998Z,69.13
2024-02-22T00:28:06.231Z,69.05
2024-02-22T00:30:35.382Z,69.88
2024-02-22T00:33:03.992Z,69.93
2024-02-22T00:35:33.073Z,69.25
2024-02-22T00:38:01.967Z,70.20
2024-02-22T00:40:30.330Z,70.83
2024-02-22T00:42:59.307Z,70.56
2024-02-22T00:45:28.263Z,70.11
2024-02-22T00:47:59.385Z,69.99
2024-02-22T00:50:29.749Z,69.75
2024-02-22T00:52:58.109Z,69.83
2024-02-22T00:55:26.644Z,69.85
2024-02-22T00:57:56.798Z,69.72
2024-02-22T01:00:25.284Z,69.29
2024-02-22T01:02:54.041Z,68.79
2024-02-22T01:05:22.156Z,68.69
2024-02-22T01:07:50.990Z,68.85
2024-02-22T01:10:19.704Z,69.58
2024-02-22T01:12:50.541Z,69.70
2024-02-22T01:15:20.190Z,69.49
2024-02-22T01:17:48.843Z,69.07
2024-02-22T01:20:17.867Z,69.06
2024-02-22T01:22:47.503Z,68.86
2024-02-22T01:25:16.350Z,68.67
2024-02-22T01:27:45.926Z,68.70
2024-02-22T01:30:15.232Z,68.87
2024-02-22T01:32:43.881Z,68.95
2024-02-22T01:35:12.406Z,69.43
2024-02-22T01:37:41.931Z,69.58
2024-02-22T01:40:12.865Z,69.37
2024-02-22T01:42:43.916Z,69.86
2024-02-22T01:45:15.393Z,69.08
2024-02-22T01:47:44.179Z,68.68
2024-02-22T01:50:14.851Z,68.66
2024-02-22T01:52:45.241Z,68.33
2024-02-22T01:55:15.210Z,68.33
2024-02-22T01:57:44.795Z,67.97
2024-02-22T02:00:18.072Z,67.75
2024-02-22T02:02:48.267Z,67.83
2024-02-22T02:05:17.984Z,68.48
2024-02-22T02:07:46.928Z,68.23
2024-02-22T02:10:14.707Z,68.43
2024-02-22T02:12:43.063Z,68.98
2024-02-22T02:15:13.933Z,68.95
2024-02-22T02:17:44.133Z,68.60
2024-02-22T02:20:15.479Z,68.12
2024-02-22T02:22:55.840Z,68.05
2024-02-22T02:25:26.145Z,67.79
2024-02-22T02:27:54.196Z,68.16
2024-02-22T02:30:23.533Z,68.74
2024-02-22T02:32:53.551Z,68.54
2024-02-22T02:35:24.342Z,68.52
2024-02-22T02:37:58.579Z,69.14
2024-02-22T02:40:28.015Z,69.27
2024-02-22T02:42:56.400Z,70.03
2024-02-22T02:45:27.285Z,70.54
2024-02-22T02:47:57.257Z,70.72
2024-02-22T02:50:26.816Z,70.86
2024-02-22T02:52:55.633Z,71.25
2024-02-22T02:55:24.093Z,71.13
2024-02-22T02:57:53.061Z,70.88
2024-02-22T03:00:21.767Z,70.48
2024-02-22T03:02:50.094Z,70.85
2024-02-22T03:05:18.819Z,69.91
2024-02-22T03:07:48.142Z,70.52
2024-02-22T03:10:16.802Z,71.25
2024-02-22T03:12:48.298Z,71.56
2024-02-22T03:15:16.501Z,71.73
2024-02-22T03:17:46.012Z,71.34
2024-02-22T03:20:17.916Z,71.09
2024-02-22T03:22:47.169Z,70.82
2024-02-22T03:25:16.018Z,69.88
2024-02-22T03:27:45.169Z,69.66
2024-02-22T03:30:17.431Z,69.16
2024-02-22T03:32:45.035Z,69.35
2024-02-22T03:35:15.040Z,68.86
2024-02-22T03:37:44.048Z,69.16
2024-02-22T03:40:13.163Z,69.68
2024-02-22T03:42:42.864Z,69.88
2024-02-22T03:45:12.695Z,69.29
2024-02-22T03:47:41.737Z,69.00
2024-02-22T03:50:10.391Z,68.98
2024-02-22T03:52:43.008Z,68.59
2024-02-22T03:55:12.638Z,68.39
2024-02-22T03:57:42.777Z,68.39
2024-02-22T04:00:13.009Z,68.24
2024-02-22T04:02:43.494Z,68.16
2024-02-22T04:05:13.796Z,68.61
2024-02-22T04:07:45.524Z,69.17
2024-02-22T04:10:14.816Z,69.20
2024-02-22T04:12:43.336Z,69.03
2024-02-22T04:15:13.175Z,68.55
2024-02-22T04:17:41.786Z,68.30
2024-02-22T04:20:11.318Z,68.52
2024-02-22T04:22:49.096Z,68.99
2024-02-22T04:25:18.603Z,69.27
2024-02-22T04:27:47.512Z,69.38
2024-02-22T04:30:16.215Z,69.75
2024-02-22T04:32:47.604Z,70.36
2024-02-22T04:35:17.106Z,70.16
2024-02-22T04:37:46.447Z,69.97
2024-02-22T04:40:15.349Z,70.08
2024-02-22T04:42:44.901Z,70.20
2024-02-22T04:45:14.943Z,69.80
2024-02-22T04:47:43.927Z,69.80
2024-02-22T04:50:13.748Z,69.24
2024-02-22T04:52:44.046Z,69.27
2024-02-22T04:55:13.059Z,70.47
2024-02-22T04:57:43.127Z,70.49
2024-02-22T05:00:16.046Z,69.82
2024-02-22T05:02:45.628Z,70.92
2024-02-22T05:05:14.357Z,71.09
2024-02-22T05:07:44.138Z,71.06
2024-02-22T05:10:15.805Z,71.31
2024-02-22T05:12:43.604Z,71.11
2024-02-22T05:15:11.868Z,71.32
2024-02-22T05:17:42.951Z,70.82
2024-02-22T05:20:13.677Z,71.51
2024-02-22T05:22:42.540Z,71.03
2024-02-22T05:25:11.408Z,71.07
2024-02-22T05:27:41.254Z,71.16
2024-02-22T05:30:14.045Z,72.02
2024-02-22T05:32:43.470Z,72.18
2024-02-22T05:35:12.797Z,72.03
2024-02-22T05:37:41.819Z,72.16
2024-02-22T05:40:11.278Z,72.59
2024-02-22T05:42:39.511Z,72.60
2024-02-22T05:45:09.238Z,72.79
2024-02-22T05:47:37.620Z,72.53
2024-02-22T05:50:19.703Z,73.70
2024-02-22T05:52:49.341Z,73.71
2024-02-22T05:55:20.877Z,72.54
2024-02-22T05:57:51.300Z,72.36
2024-02-22T06:00:32.011Z,72.79
2024-02-22T06:03:14.008Z,73.37
2024-02-22T06:05:43.999Z,73.39
2024-02-22T06:08:37.153Z,73.31
2024-02-22T06:11:37.926Z,73.37
2024-02-22T06:14:16.220Z,72.72
2024-02-22T06:16:45.042Z,72.48
2024-02-22T06:19:19.327Z,72.58
2024-02-22T06:24:45.142Z,71.67
2024-02-22T06:27:17.685Z,71.75
2024-02-22T06:29:50.435Z,71.58
2024-02-22T06:32:26.305Z,71.40
2024-02-22T06:35:07.966Z,70.81
2024-02-22T06:37:46.064Z,70.36
2024-02-22T06:40:23.257Z,69.76
2024-02-22T06:46:37.527Z,69.31
2024-02-22T06:49:25.495Z,69.17
2024-02-22T06:52:04.009Z,69.00
2024-02-22T06:54:58.524Z,68.56
2024-02-22T06:57:37.965Z,67.45
2024-02-22T07:00:10.925Z,67.08
2024-02-22T07:02:48.831Z,66.38
2024-02-22T07:05:26.246Z,66.68
2024-02-22T07:08:08.022Z,66.32
2024-02-22T07:10:45.623Z,65.32
2024-02-22T07:13:29.666Z,66.46
2024-02-22T07:16:14.431Z,64.99
2024-02-22T07:18:56.378Z,64.75
2024-02-22T07:21:35.037Z,64.32
2024-02-22T07:24:28.046Z,63.38
2024-02-22T07:27:26.043Z,61.34
2024-02-22T07:34:29.452Z,62.18
2024-02-22T07:37:13.086Z,59.62
2024-02-22T07:40:11.228Z,59.46
2024-02-22T07:42:50.394Z,57.54
2024-02-22T07:46:09.869Z,58.71
2024-02-22T07:49:28.891Z,59.59
2024-02-22T07:52:42.616Z,56.72
2024-02-22T07:56:16.317Z,56.72
2024-02-22T07:59:10.921Z,57.74
2024-02-22T08:06:14.685Z,56.12
2024-02-22T08:08:59.244Z,54.27
2024-02-22T08:11:41.841Z,55.86
2024-02-22T08:14:47.735Z,55.85
2024-02-22T08:17:27.489Z,53.84
2024-02-22T08:20:22.932Z,53.02
2024-02-22T08:22:53.825Z,54.76
2024-02-22T08:25:28.308Z,53.87
2024-02-22T08:28:32.433Z,53.68
2024-02-22T08:31:16.853Z,52.28
2024-02-22T08:33:48.833Z,52.51
2024-02-22T08:36:18.638Z,52.33
2024-02-22T08:39:12.146Z,51.89
2024-02-22T08:45:52.915Z,50.35
2024-02-22T08:48:26.342Z,50.11
2024-02-22T08:51:08.308Z,49.44
2024-02-22T08:53:39.237Z,49.62
2024-02-22T08:56:12.112Z,48.12
2024-02-22T08:59:01.342Z,49.13
2024-02-22T09:01:34.967Z,49.13
2024-02-22T09:04:18.170Z,48.16
2024-02-22T09:07:56.610Z,47.20
2024-02-22T09:10:27.587Z,47.33
2024-02-22T09:13:05.008Z,46.02
2024-02-22T09:15:37.669Z,46.29
2024-02-22T09:18:21.588Z,45.45
2024-02-22T09:34:54.951Z,42.78
2024-02-22T09:37:24.580Z,42.98
2024-02-22T09:39:53.285Z,40.50
2024-02-22T09:42:36.816Z,42.85
2024-02-22T09:45:34.438Z,40.85
2024-02-22T09:52:34.552Z,40.34
2024-02-22T09:59:09.573Z,41.40
2024-02-22T10:06:36.780Z,40.95
2024-02-22T10:09:16.958Z,40.37
2024-02-22T10:12:21.042Z,40.34
2024-02-22T10:15:38.289Z,40.08
2024-02-22T10:18:40.380Z,40.39
2024-02-22T10:21:39.906Z,39.96
2024-02-22T10:24:15.029Z,38.68
2024-02-22T10:27:11.456Z,39.08
2024-02-22T10:30:13.036Z,39.19
2024-02-22T10:32:48.481Z,39.57
2024-02-22T10:35:51.454Z,38.48
2024-02-22T10:38:19.608Z,38.51
2024-02-22T10:40:50.603Z,37.87
2024-02-22T10:43:20.852Z,38.73
2024-02-22T10:46:05.273Z,37.82
2024-02-22T10:48:56.877Z,37.97
2024-02-22T10:52:05.786Z,38.40
2024-02-22T10:54:59.978Z,37.91
2024-02-22T10:57:31.776Z,38.46
2024-02-22T11:00:06.454Z,38.45
2024-02-22T11:02:35.778Z,36.72
2024-02-22T11:05:05.375Z,34.95
2024-02-22T11:07:51.632Z,34.55
2024-02-22T11:10:36.491Z,33.85
2024-02-22T11:13:16.351Z,33.99
2024-02-22T11:16:19.488Z,35.36
2024-02-22T11:18:51.057Z,35.25
2024-02-22T11:21:23.979Z,35.61
2024-02-22T11:23:53.668Z,35.70
2024-02-22T11:26:33.741Z,36.32
2024-02-22T11:29:09.757Z,35.75
2024-02-22T11:31:39.850Z,35.28
2024-02-22T11:34:58.587Z,35.46
2024-02-22T11:37:37.245Z,34.95
2024-02-22T11:40:21.138Z,35.73
2024-02-22T11:42:59.122Z,36.59
2024-02-22T11:45:27.952Z,36.88
2024-02-22T11:47:55.466Z,37.51
2024-02-22T11:50:53.203Z,37.69
2024-02-22T11:53:29.136Z,38.02
2024-02-22T11:56:02.337Z,38.65
2024-02-22T11:58:41.424Z,38.30
2024-02-22T12:01:22.926Z,38.09
2024-02-22T12:04:12.460Z,38.61
2024-02-22T12:06:44.606Z,38.44
2024-02-22T12:09:15.346Z,37.91
2024-02-22T12:11:53.376Z,37.32
2024-02-22T12:17:45.145Z,36.80
2024-02-22T12:20:16.239Z,36.64
2024-02-22T12:22:47.787Z,36.71
2024-02-22T12:25:16.765Z,36.51
2024-02-22T12:27:52.261Z,37.53
2024-02-22T12:30:24.970Z,38.16
2024-02-22T12:32:53.914Z,37.59
2024-02-22T12:35:22.860Z,36.44
2024-02-22T12:37:52.010Z,36.19
2024-02-22T12:40:22.356Z,36.17
2024-02-22T12:42:57.707Z,36.32
2024-02-22T12:45:26.675Z,36.32
2024-02-22T12:48:18.615Z,35.60
2024-02-22T12:50:55.690Z,35.87
2024-02-22T12:53:24.087Z,35.99
2024-02-22T12:56:01.368Z,35.92
2024-02-22T12:58:29.969Z,35.72
2024-02-22T13:00:58.411Z,34.85
2024-02-22T13:03:26.797Z,34.87
2024-02-22T13:05:55.101Z,34.10
2024-02-22T13:08:29.758Z,34.54
2024-02-22T13:11:00.150Z,34.94
2024-02-22T13:13:28.863Z,35.22
2024-02-22T13:15:58.873Z,35.45
2024-02-22T13:18:27.162Z,35.64
2024-02-22T13:20:58.919Z,35.80
2024-02-22T13:23:26.908Z,35.51
2024-02-22T13:25:55.653Z,35.50
2024-02-22T13:28:27.287Z,36.08
2024-02-22T13:30:55.732Z,35.45
2024-02-22T13:33:24.075Z,35.25
2024-02-22T13:35:52.303Z,35.41
2024-02-22T13:38:20.751Z,34.91
2024-02-22T13:40:49.162Z,34.92
2024-02-22T13:43:17.470Z,34.41
2024-02-22T13:45:45.855Z,33.98
2024-02-22T13:48:16.578Z,33.19
2024-02-22T13:50:45.044Z,33.37
2024-02-22T13:53:13.266Z,33.99
2024-02-22T13:55:43.377Z,33.54
2024-02-22T13:58:12.168Z,34.02
2024-02-22T14:00:41.156Z,34.21
2024-02-22T14:03:11.679Z,34.13
2024-02-22T14:05:41.839Z,35.24
2024-02-22T14:08:11.682Z,35.66
2024-02-22T14:10:41.399Z,36.15
2024-02-22T14:13:11.387Z,35.49
2024-02-22T14:15:42.577Z,36.25
2024-02-22T14:18:10.767Z,35.00
2024-02-22T14:20:38.334Z,34.37
2024-02-22T14:23:09.635Z,34.72
2024-02-22T14:25:39.165Z,35.03
2024-02-22T14:28:10.022Z,34.48
2024-02-22T14:30:38.953Z,34.94
2024-02-22T14:33:08.922Z,34.40
2024-02-22T14:35:37.362Z,33.88
2024-02-22T14:38:05.462Z,34.44
2024-02-22T14:40:34.230Z,34.59
2024-02-22T14:43:02.264Z,34.56
2024-02-22T14:45:33.743Z,34.84
2024-02-22T14:48:02.863Z,34.99
2024-02-22T14:50:34.841Z,35.18
2024-02-22T14:53:05.084Z,35.28
2024-02-22T14:55:33.436Z,35.46
2024-02-22T14:58:01.875Z,35.47
2024-02-22T15:00:30.594Z,35.20
2024-02-22T15:02:58.215Z,35.30
2024-02-22T15:05:27.416Z,35.53
2024-02-22T15:07:59.186Z,35.25
2024-02-22T15:10:28.793Z,35.20
2024-02-22T15:12:59.844Z,35.32
2024-02-22T15:15:27.494Z,35.46
2024-02-22T15:17:55.874Z,35.33
2024-02-22T15:20:25.147Z,35.08
2024-02-22T15:22:53.219Z,34.79
2024-02-22T15:25:23.244Z,35.19
2024-02-22T15:27:51.322Z,35.67
2024-02-22T15:30:20.423Z,35.91
2024-02-22T15:32:48.380Z,35.76
2024-02-22T15:35:19.958Z,35.87
2024-02-22T15:37:49.021Z,35.76
2024-02-22T15:40:17.654Z,36.47
2024-02-22T15:42:49.177Z,36.79
2024-02-22T15:45:18.347Z,36.30
2024-02-22T15:47:46.460Z,36.38
2024-02-22T15:50:17.108Z,36.45
2024-02-22T15:52:46.552Z,36.17
2024-02-22T15:55:14.424Z,36.43
2024-02-22T15:57:43.018Z,36.01
2024-02-22T16:00:12.569Z,36.35
2024-02-22T16:02:41.495Z,36.48
2024-02-22T16:05:09.105Z,36.95
2024-02-22T16:07:41.129Z,37.65
2024-02-22T16:10:10.052Z,37.65
2024-02-22T16:12:42.169Z,38.02
2024-02-22T16:15:12.437Z,38.38
2024-02-22T16:17:41.847Z,38.84
2024-02-22T16:20:12.432Z,38.56
2024-02-22T16:22:40.354Z,38.72
2024-02-22T16:25:11.177Z,39.02
2024-02-22T16:27:42.435Z,39.11
2024-02-22T16:30:14.153Z,38.71
2024-02-22T16:32:44.116Z,38.40
2024-02-22T16:35:17.062Z,38.81
2024-02-22T16:37:46.507Z,38.83
2024-02-22T16:40:16.953Z,38.83
2024-02-22T16:42:46.530Z,39.04
2024-02-22T16:45:16.381Z,39.26
2024-02-22T16:47:46.582Z,39.24
2024-02-22T16:50:14.693Z,39.24
2024-02-22T16:52:43.676Z,39.10
2024-02-22T16:55:12.981Z,38.91
2024-02-22T16:57:42.700Z,38.46
2024-02-22T17:00:11.179Z,38.87
2024-02-22T17:02:42.284Z,38.83
2024-02-22T17:05:11.759Z,39.44
2024-02-22T17:07:43.068Z,39.07
2024-02-22T17:10:15.767Z,38.56
2024-02-22T17:12:44.472Z,38.81
2024-02-22T17:15:13.260Z,39.03
2024-02-22T17:17:47.250Z,38.88
2024-02-22T17:20:19.225Z,38.01
2024-02-22T17:22:46.870Z,38.14
2024-02-22T17:25:16.705Z,38.23
2024-02-22T17:27:44.878Z,38.38
2024-02-22T17:30:13.328Z,38.35
2024-02-22T17:32:43.602Z,37.75
2024-02-22T17:35:16.796Z,38.20
2024-02-22T17:37:48.968Z,38.21
2024-02-22T17:40:18.398Z,38.62
2024-02-22T17:42:47.721Z,38.20
2024-02-22T17:45:16.757Z,37.99
2024-02-22T17:47:46.085Z,38.50
2024-02-22T17:50:15.744Z,38.28
2024-02-22T17:52:43.994Z,38.29
2024-02-22T17:55:12.259Z,38.44
2024-02-22T17:57:53.654Z,38.55
2024-02-22T18:00:41.638Z,38.83
2024-02-22T18:03:09.924Z,38.87
2024-02-22T18:05:43.758Z,38.61
2024-02-22T18:08:12.309Z,38.88
2024-02-22T18:10:40.189Z,39.16
2024-02-22T18:13:09.006Z,39.25
2024-02-22T18:15:37.572Z,39.41
2024-02-22T18:18:06.853Z,39.55
2024-02-22T18:20:36.933Z,39.20
2024-02-22T18:23:05.943Z,39.50
2024-02-22T18:25:54.495Z,39.57
2024-02-22T18:28:26.100Z,39.77
2024-02-22T18:30:54.489Z,38.13
2024-02-22T18:33:26.379Z,37.46
2024-02-22T18:35:55.220Z,38.81
2024-02-22T18:38:25.682Z,39.25
2024-02-22T18:40:54.977Z,39.61
2024-02-22T18:43:23.533Z,39.87
2024-02-22T18:45:51.854Z,40.07
2024-02-22T18:48:20.527Z,39.91
2024-02-22T18:50:49.931Z,40.08
2024-02-22T18:53:18.908Z,40.69
2024-02-22T18:55:46.788Z,41.63
2024-02-22T18:58:15.670Z,41.42
2024-02-22T19:00:44.387Z,41.35
2024-02-22T19:03:11.788Z,42.22
2024-02-22T19:05:43.114Z,41.68
2024-02-22T19:08:12.933Z,41.84
2024-02-22T19:10:43.163Z,42.09
2024-02-22T19:13:12.494Z,42.32
2024-02-22T19:15:40.857Z,42.95
2024-02-22T19:18:10.182Z,42.85
2024-02-22T19:20:39.019Z,42.97
2024-02-22T19:23:08.175Z,43.72
2024-02-22T19:25:37.824Z,45.17
2024-02-22T19:28:06.476Z,44.57
2024-02-22T19:30:37.337Z,44.17
2024-02-22T19:33:08.464Z,44.36
2024-02-22T19:35:39.157Z,45.90
2024-02-22T19:38:08.691Z,44.88
2024-02-22T19:40:37.258Z,44.95
2024-02-22T19:43:06.722Z,45.25
2024-02-22T19:45:36.516Z,47.52
2024-02-22T19:48:06.915Z,46.44
2024-02-22T19:50:39.010Z,47.27
2024-02-22T19:53:11.586Z,47.93
2024-02-22T19:55:41.362Z,48.60
2024-02-22T19:58:11.160Z,48.01
2024-02-22T20:00:41.820Z,47.79
2024-02-22T20:03:10.807Z,47.18
2024-02-22T20:05:40.244Z,49.05
2024-02-22T20:08:10.121Z,48.26
2024-02-22T20:10:38.710Z,48.18
2024-02-22T20:13:10.664Z,48.17
2024-02-22T20:15:39.756Z,49.98
2024-02-22T20:18:08.341Z,49.67
2024-02-22T20:20:37.264Z,50.56
2024-02-22T20:23:06.888Z,50.85
2024-02-22T20:25:36.395Z,50.64
2024-02-22T20:28:05.357Z,50.30
2024-02-22T20:30:35.688Z,51.17
2024-02-22T20:33:07.405Z,50.26
2024-02-22T20:35:37.373Z,51.06
2024-02-22T20:38:05.888Z,51.26
2024-02-22T20:40:34.259Z,51.15
2024-02-22T20:43:04.747Z,51.98
2024-02-22T20:45:36.374Z,51.49
2024-02-22T20:48:05.712Z,51.47
2024-02-22T20:50:34.358Z,51.60
2024-02-22T20:53:03.668Z,51.65
2024-02-22T20:55:31.995Z,52.26
2024-02-22T20:58:01.552Z,51.50
2024-02-22T21:00:30.648Z,51.17
2024-02-22T21:03:01.619Z,50.75
2024-02-22T21:05:35.386Z,51.26
2024-02-22T21:08:06.921Z,50.96
2024-02-22T21:10:36.141Z,51.65
2024-02-22T21:13:05.388Z,50.98
2024-02-22T21:15:35.573Z,52.03
2024-02-22T21:18:06.162Z,51.35
2024-02-22T21:20:35.366Z,51.72
2024-02-22T21:23:04.668Z,52.60
2024-02-22T21:25:34.516Z,52.39
2024-02-22T21:28:05.501Z,51.92
2024-02-22T21:30:34.128Z,51.51
2024-02-22T21:33:03.485Z,52.61
2024-02-22T21:35:33.088Z,51.62
2024-02-22T21:38:01.009Z,52.15
2024-02-22T21:40:30.418Z,52.71
2024-02-22T21:42:59.258Z,52.83
2024-02-22T21:45:30.469Z,52.41
2024-02-22T21:48:00.422Z,53.22
2024-02-22T21:50:30.122Z,52.22
2024-02-22T21:52:58.628Z,52.80
2024-02-22T21:55:29.938Z,53.08
2024-02-22T21:57:58.730Z,53.06
2024-02-22T22:00:26.928Z,53.13
2024-02-22T22:02:58.282Z,53.72
2024-02-22T22:05:27.444Z,53.38
2024-02-22T22:07:58.256Z,53.47
2024-02-22T22:10:26.440Z,54.42
2024-02-22T22:12:55.220Z,53.99
2024-02-22T22:15:26.190Z,53.77
2024-02-22T22:17:55.362Z,55.16
2024-02-22T22:20:24.179Z,55.29
2024-02-22T22:22:53.070Z,55.45
2024-02-22T22:25:21.233Z,54.48
2024-02-22T22:27:50.517Z,55.15
2024-02-22T22:30:19.691Z,55.81
2024-02-22T22:32:49.273Z,55.13
2024-02-22T22:35:18.544Z,55.61
2024-02-22T22:37:47.989Z,55.21
2024-02-22T22:40:16.203Z,55.23
2024-02-22T22:42:45.968Z,55.67
2024-02-22T22:45:14.613Z,55.80
2024-02-22T22:47:44.395Z,55.64
2024-02-22T22:50:13.156Z,56.19
2024-02-22T22:52:43.088Z,55.41
2024-02-22T22:55:12.798Z,55.46
2024-02-22T22:57:41.494Z,55.29
2024-02-22T23:00:30.215Z,55.77
2024-02-22T23:03:01.016Z,56.05
2024-02-22T23:05:30.241Z,55.60
2024-02-22T23:07:59.177Z,55.68
2024-02-22T23:10:31.262Z,56.33
2024-02-22T23:13:02.082Z,56.70
2024-02-22T23:15:30.774Z,55.61
2024-02-22T23:17:59.061Z,55.36
2024-02-22T23:20:29.678Z,55.46
2024-02-22T23:22:59.340Z,56.52
2024-02-22T23:25:29.816Z,55.51
2024-02-22T23:27:58.028Z,55.95
2024-02-22T23:30:26.776Z,55.85
2024-02-22T23:32:55.442Z,57.45
2024-02-22T23:35:24.071Z,57.82
2024-02-22T23:37:53.008Z,56.90
2024-02-22T23:40:23.213Z,56.11
2024-02-22T23:42:51.201Z,56.32
2024-02-22T23:45:21.929Z,57.76
2024-02-22T23:47:51.341Z,57.96
2024-02-22T23:50:19.366Z,58.25
2024-02-22T23:52:47.722Z,57.50
2024-02-22T23:55:17.181Z,57.99
2024-02-22T23:57:46.489Z,57.48
